sensor_id;sensor_type;location;lat;lon;timestamp;P1;durP1;ratioP1;P2;durP2;ratioP2
3843;SDS011;1937;51.444;6.484;2022-11-12T00:01:27;15.23;;;8.17;;
3843;SDS011;1937;51.444;6.484;2022-11-12T00:03:55;11.90;;;7.00;;
3843;SDS011;1937;51.444;6.484;2022-11-12T00:06:23;12.57;;;8.23;;
3843;SDS011;1937;51.444;6.484;2022-11-12T00:08:52;16.20;;;8.60;;
3843;SDS011;1937;51.444;6.484;2022-11-12T00:11:20;12.77;;;7.80;;
3843;SDS011;1937;51.444;6.484;2022-11-12T00:13:48;10.83;;;7.20;;
3843;SDS011;1937;51.444;6.484;2022-11-12T00:16:16;10.90;;;6.80;;
3843;SDS011;1937;51.444;6.484;2022-11-12T00:18:46;10.30;;;7.00;;
3843;SDS011;1937;51.444;6.484;2022-11-12T00:21:14;13.70;;;7.20;;
3843;SDS011;1937;51.444;6.484;2022-11-12T00:23:43;13.20;;;7.23;;
3843;SDS011;1937;51.444;6.484;2022-11-12T00:26:11;13.47;;;7.60;;
3843;SDS011;1937;51.444;6.484;2022-11-12T00:28:39;11.30;;;7.27;;
3843;SDS011;1937;51.444;6.484;2022-11-12T00:31:08;11.07;;;7.10;;
3843;SDS011;1937;51.444;6.484;2022-11-12T00:33:41;11.60;;;7.30;;
3843;SDS011;1937;51.444;6.484;2022-11-12T00:36:11;15.27;;;6.70;;
3843;SDS011;1937;51.444;6.484;2022-11-12T00:38:40;13.53;;;7.33;;
3843;SDS011;1937;51.444;6.484;2022-11-12T00:41:08;10.57;;;6.63;;
3843;SDS011;1937;51.444;6.484;2022-11-12T00:43:39;10.33;;;7.57;;
3843;SDS011;1937;51.444;6.484;2022-11-12T00:46:08;11.37;;;6.60;;
3843;SDS011;1937;51.444;6.484;2022-11-12T00:48:36;9.70;;;6.23;;
3843;SDS011;1937;51.444;6.484;2022-11-12T00:51:05;12.57;;;6.40;;
3843;SDS011;1937;51.444;6.484;2022-11-12T00:53:35;12.30;;;6.87;;
3843;SDS011;1937;51.444;6.484;2022-11-12T00:56:04;10.03;;;6.23;;
3843;SDS011;1937;51.444;6.484;2022-11-12T00:58:34;10.93;;;6.20;;
3843;SDS011;1937;51.444;6.484;2022-11-12T01:01:04;11.80;;;6.50;;
3843;SDS011;1937;51.444;6.484;2022-11-12T01:03:32;11.30;;;6.53;;
3843;SDS011;1937;51.444;6.484;2022-11-12T01:06:01;12.50;;;5.83;;
3843;SDS011;1937;51.444;6.484;2022-11-12T01:08:30;7.87;;;5.70;;
3843;SDS011;1937;51.444;6.484;2022-11-12T01:11:08;8.13;;;6.67;;
3843;SDS011;1937;51.444;6.484;2022-11-12T01:13:39;6.80;;;6.10;;
3843;SDS011;1937;51.444;6.484;2022-11-12T01:16:10;11.30;;;6.20;;
3843;SDS011;1937;51.444;6.484;2022-11-12T01:18:41;9.77;;;6.17;;
3843;SDS011;1937;51.444;6.484;2022-11-12T01:21:10;8.47;;;6.27;;
3843;SDS011;1937;51.444;6.484;2022-11-12T01:23:39;7.50;;;5.80;;
3843;SDS011;1937;51.444;6.484;2022-11-12T01:26:11;11.77;;;7.67;;
3843;SDS011;1937;51.444;6.484;2022-11-12T01:28:41;10.93;;;6.20;;
3843;SDS011;1937;51.444;6.484;2022-11-12T01:31:10;8.47;;;6.60;;
3843;SDS011;1937;51.444;6.484;2022-11-12T01:33:41;9.33;;;6.67;;
3843;SDS011;1937;51.444;6.484;2022-11-12T01:36:11;9.70;;;6.20;;
3843;SDS011;1937;51.444;6.484;2022-11-12T01:38:41;10.63;;;6.97;;
3843;SDS011;1937;51.444;6.484;2022-11-12T01:41:13;9.57;;;8.57;;
3843;SDS011;1937;51.444;6.484;2022-11-12T01:43:44;10.63;;;6.97;;
3843;SDS011;1937;51.444;6.484;2022-11-12T01:46:13;11.17;;;6.27;;
3843;SDS011;1937;51.444;6.484;2022-11-12T01:48:46;8.70;;;6.73;;
3843;SDS011;1937;51.444;6.484;2022-11-12T01:51:18;10.20;;;6.17;;
3843;SDS011;1937;51.444;6.484;2022-11-12T01:53:48;13.00;;;6.50;;
3843;SDS011;1937;51.444;6.484;2022-11-12T01:56:23;7.67;;;5.83;;
3843;SDS011;1937;51.444;6.484;2022-11-12T01:58:57;11.63;;;7.23;;
3843;SDS011;1937;51.444;6.484;2022-11-12T02:01:29;10.47;;;6.73;;
3843;SDS011;1937;51.444;6.484;2022-11-12T02:03:58;12.43;;;6.93;;
3843;SDS011;1937;51.444;6.484;2022-11-12T02:06:27;11.23;;;7.37;;
3843;SDS011;1937;51.444;6.484;2022-11-12T02:08:55;10.00;;;6.77;;
3843;SDS011;1937;51.444;6.484;2022-11-12T02:11:26;8.50;;;5.70;;
3843;SDS011;1937;51.444;6.484;2022-11-12T02:13:55;10.60;;;6.50;;
3843;SDS011;1937;51.444;6.484;2022-11-12T02:16:26;9.90;;;6.77;;
3843;SDS011;1937;51.444;6.484;2022-11-12T02:18:58;9.10;;;6.20;;
3843;SDS011;1937;51.444;6.484;2022-11-12T02:21:28;8.73;;;6.20;;
3843;SDS011;1937;51.444;6.484;2022-11-12T02:23:59;9.70;;;6.00;;
3843;SDS011;1937;51.444;6.484;2022-11-12T02:26:29;11.73;;;7.33;;
3843;SDS011;1937;51.444;6.484;2022-11-12T02:28:59;12.80;;;7.03;;
3843;SDS011;1937;51.444;6.484;2022-11-12T02:31:29;10.57;;;6.97;;
3843;SDS011;1937;51.444;6.484;2022-11-12T02:33:58;11.83;;;6.53;;
3843;SDS011;1937;51.444;6.484;2022-11-12T02:36:27;7.80;;;6.30;;
3843;SDS011;1937;51.444;6.484;2022-11-12T02:38:55;11.73;;;6.60;;
3843;SDS011;1937;51.444;6.484;2022-11-12T02:41:24;12.63;;;7.10;;
3843;SDS011;1937;51.444;6.484;2022-11-12T02:43:52;10.67;;;6.43;;
3843;SDS011;1937;51.444;6.484;2022-11-12T02:46:20;10.70;;;6.47;;
3843;SDS011;1937;51.444;6.484;2022-11-12T02:48:49;12.40;;;7.13;;
3843;SDS011;1937;51.444;6.484;2022-11-12T02:51:15;9.70;;;6.63;;
3843;SDS011;1937;51.444;6.484;2022-11-12T02:53:43;10.83;;;7.30;;
3843;SDS011;1937;51.444;6.484;2022-11-12T02:56:10;10.20;;;7.60;;
3843;SDS011;1937;51.444;6.484;2022-11-12T02:58:36;13.63;;;8.30;;
3843;SDS011;1937;51.444;6.484;2022-11-12T03:01:03;10.03;;;7.17;;
3843;SDS011;1937;51.444;6.484;2022-11-12T03:03:29;12.13;;;8.63;;
3843;SDS011;1937;51.444;6.484;2022-11-12T03:05:57;12.10;;;6.60;;
3843;SDS011;1937;51.444;6.484;2022-11-12T03:08:25;11.03;;;6.60;;
3843;SDS011;1937;51.444;6.484;2022-11-12T03:10:53;11.67;;;8.13;;
3843;SDS011;1937;51.444;6.484;2022-11-12T03:13:20;11.40;;;7.00;;
3843;SDS011;1937;51.444;6.484;2022-11-12T03:15:46;12.10;;;8.57;;
3843;SDS011;1937;51.444;6.484;2022-11-12T03:18:13;12.77;;;7.30;;
3843;SDS011;1937;51.444;6.484;2022-11-12T03:20:40;8.13;;;6.33;;
3843;SDS011;1937;51.444;6.484;2022-11-12T03:23:07;9.20;;;6.60;;
3843;SDS011;1937;51.444;6.484;2022-11-12T03:25:35;11.33;;;7.27;;
3843;SDS011;1937;51.444;6.484;2022-11-12T03:28:05;17.20;;;6.87;;
3843;SDS011;1937;51.444;6.484;2022-11-12T03:30:33;11.57;;;6.83;;
3843;SDS011;1937;51.444;6.484;2022-11-12T03:33:01;15.93;;;6.03;;
3843;SDS011;1937;51.444;6.484;2022-11-12T03:35:28;10.03;;;7.40;;
3843;SDS011;1937;51.444;6.484;2022-11-12T03:37:56;10.70;;;6.50;;
3843;SDS011;1937;51.444;6.484;2022-11-12T03:40:23;9.97;;;6.40;;
3843;SDS011;1937;51.444;6.484;2022-11-12T03:42:50;12.10;;;6.33;;
3843;SDS011;1937;51.444;6.484;2022-11-12T03:45:19;9.13;;;6.10;;
3843;SDS011;1937;51.444;6.484;2022-11-12T03:47:48;8.00;;;5.87;;
3843;SDS011;1937;51.444;6.484;2022-11-12T03:50:17;8.03;;;5.63;;
3843;SDS011;1937;51.444;6.484;2022-11-12T03:52:45;10.27;;;6.07;;
3843;SDS011;1937;51.444;6.484;2022-11-12T03:55:14;9.23;;;5.80;;
3843;SDS011;1937;51.444;6.484;2022-11-12T03:57:41;8.47;;;6.30;;
3843;SDS011;1937;51.444;6.484;2022-11-12T04:00:10;10.27;;;7.73;;
3843;SDS011;1937;51.444;6.484;2022-11-12T04:02:38;10.57;;;6.20;;
3843;SDS011;1937;51.444;6.484;2022-11-12T04:05:06;9.07;;;6.70;;
3843;SDS011;1937;51.444;6.484;2022-11-12T04:07:55;8.73;;;6.33;;
3843;SDS011;1937;51.444;6.484;2022-11-12T04:10:40;12.03;;;6.23;;
3843;SDS011;1937;51.444;6.484;2022-11-12T04:13:07;8.50;;;6.63;;
3843;SDS011;1937;51.444;6.484;2022-11-12T04:15:51;9.13;;;6.63;;
3843;SDS011;1937;51.444;6.484;2022-11-12T04:18:39;10.17;;;6.27;;
3843;SDS011;1937;51.444;6.484;2022-11-12T04:21:24;9.03;;;6.67;;
3843;SDS011;1937;51.444;6.484;2022-11-12T04:24:11;8.10;;;6.00;;
3843;SDS011;1937;51.444;6.484;2022-11-12T04:26:57;8.63;;;6.30;;
3843;SDS011;1937;51.444;6.484;2022-11-12T04:29:23;12.03;;;6.13;;
3843;SDS011;1937;51.444;6.484;2022-11-12T04:32:07;6.87;;;5.33;;
3843;SDS011;1937;51.444;6.484;2022-11-12T04:34:35;9.93;;;6.00;;
3843;SDS011;1937;51.444;6.484;2022-11-12T04:37:02;8.23;;;5.90;;
3843;SDS011;1937;51.444;6.484;2022-11-12T04:39:29;8.63;;;5.70;;
3843;SDS011;1937;51.444;6.484;2022-11-12T04:41:56;8.20;;;5.73;;
3843;SDS011;1937;51.444;6.484;2022-11-12T04:44:40;10.10;;;6.03;;
3843;SDS011;1937;51.444;6.484;2022-11-12T04:47:26;10.73;;;6.63;;
3843;SDS011;1937;51.444;6.484;2022-11-12T04:49:56;8.17;;;6.30;;
3843;SDS011;1937;51.444;6.484;2022-11-12T04:52:23;9.03;;;6.13;;
3843;SDS011;1937;51.444;6.484;2022-11-12T04:54:50;10.73;;;6.50;;
3843;SDS011;1937;51.444;6.484;2022-11-12T04:57:17;12.90;;;7.17;;
3843;SDS011;1937;51.444;6.484;2022-11-12T04:59:44;11.90;;;6.53;;
3843;SDS011;1937;51.444;6.484;2022-11-12T05:02:11;8.00;;;6.70;;
3843;SDS011;1937;51.444;6.484;2022-11-12T05:04:38;7.90;;;6.63;;
3843;SDS011;1937;51.444;6.484;2022-11-12T05:07:06;10.23;;;6.80;;
3843;SDS011;1937;51.444;6.484;2022-11-12T05:09:33;8.90;;;6.57;;
3843;SDS011;1937;51.444;6.484;2022-11-12T05:12:00;11.47;;;7.10;;
3843;SDS011;1937;51.444;6.484;2022-11-12T05:17:32;9.77;;;6.83;;
3843;SDS011;1937;51.444;6.484;2022-11-12T05:19:59;10.07;;;6.70;;
3843;SDS011;1937;51.444;6.484;2022-11-12T05:22:27;8.23;;;5.70;;
3843;SDS011;1937;51.444;6.484;2022-11-12T05:24:53;12.13;;;6.50;;
3843;SDS011;1937;51.444;6.484;2022-11-12T05:27:20;9.20;;;6.33;;
3843;SDS011;1937;51.444;6.484;2022-11-12T05:29:46;9.93;;;6.10;;
3843;SDS011;1937;51.444;6.484;2022-11-12T05:32:13;11.87;;;7.20;;
3843;SDS011;1937;51.444;6.484;2022-11-12T05:34:41;7.80;;;7.00;;
3843;SDS011;1937;51.444;6.484;2022-11-12T05:37:08;9.93;;;6.17;;
3843;SDS011;1937;51.444;6.484;2022-11-12T05:39:37;9.03;;;6.70;;
3843;SDS011;1937;51.444;6.484;2022-11-12T05:42:04;9.97;;;7.07;;
3843;SDS011;1937;51.444;6.484;2022-11-12T05:44:31;8.70;;;6.30;;
3843;SDS011;1937;51.444;6.484;2022-11-12T05:46:58;9.40;;;6.73;;
3843;SDS011;1937;51.444;6.484;2022-11-12T05:49:25;10.83;;;6.83;;
3843;SDS011;1937;51.444;6.484;2022-11-12T05:51:51;8.40;;;6.03;;
3843;SDS011;1937;51.444;6.484;2022-11-12T05:54:18;10.50;;;7.23;;
3843;SDS011;1937;51.444;6.484;2022-11-12T05:56:46;12.37;;;6.63;;
3843;SDS011;1937;51.444;6.484;2022-11-12T05:59:13;9.20;;;7.30;;
3843;SDS011;1937;51.444;6.484;2022-11-12T06:01:39;15.97;;;6.87;;
3843;SDS011;1937;51.444;6.484;2022-11-12T06:04:09;9.47;;;7.07;;
3843;SDS011;1937;51.444;6.484;2022-11-12T06:06:37;8.53;;;6.70;;
3843;SDS011;1937;51.444;6.484;2022-11-12T06:09:03;12.10;;;7.10;;
3843;SDS011;1937;51.444;6.484;2022-11-12T06:11:30;12.53;;;7.67;;
3843;SDS011;1937;51.444;6.484;2022-11-12T06:13:58;10.73;;;7.87;;
3843;SDS011;1937;51.444;6.484;2022-11-12T06:16:26;13.03;;;7.70;;
3843;SDS011;1937;51.444;6.484;2022-11-12T06:18:53;9.53;;;6.57;;
3843;SDS011;1937;51.444;6.484;2022-11-12T06:21:20;11.50;;;8.07;;
3843;SDS011;1937;51.444;6.484;2022-11-12T06:23:52;11.20;;;7.63;;
3843;SDS011;1937;51.444;6.484;2022-11-12T06:26:20;10.13;;;7.23;;
3843;SDS011;1937;51.444;6.484;2022-11-12T06:28:48;9.57;;;7.20;;
3843;SDS011;1937;51.444;6.484;2022-11-12T06:31:17;10.60;;;6.63;;
3843;SDS011;1937;51.444;6.484;2022-11-12T06:33:44;9.47;;;6.43;;
3843;SDS011;1937;51.444;6.484;2022-11-12T06:36:12;14.20;;;7.73;;
3843;SDS011;1937;51.444;6.484;2022-11-12T06:38:40;11.37;;;7.90;;
3843;SDS011;1937;51.444;6.484;2022-11-12T06:41:07;12.23;;;7.10;;
3843;SDS011;1937;51.444;6.484;2022-11-12T06:43:36;10.93;;;7.50;;
3843;SDS011;1937;51.444;6.484;2022-11-12T06:46:03;9.43;;;6.83;;
3843;SDS011;1937;51.444;6.484;2022-11-12T06:48:33;7.30;;;6.50;;
3843;SDS011;1937;51.444;6.484;2022-11-12T06:51:04;10.80;;;6.20;;
3843;SDS011;1937;51.444;6.484;2022-11-12T06:53:32;12.77;;;6.70;;
3843;SDS011;1937;51.444;6.484;2022-11-12T06:56:02;7.67;;;6.37;;
3843;SDS011;1937;51.444;6.484;2022-11-12T07:01:03;9.60;;;7.10;;
3843;SDS011;1937;51.444;6.484;2022-11-12T07:03:35;12.27;;;7.70;;
3843;SDS011;1937;51.444;6.484;2022-11-12T07:06:04;12.40;;;8.40;;
3843;SDS011;1937;51.444;6.484;2022-11-12T07:08:34;13.03;;;7.73;;
3843;SDS011;1937;51.444;6.484;2022-11-12T07:11:03;10.33;;;7.33;;
3843;SDS011;1937;51.444;6.484;2022-11-12T07:13:32;11.63;;;8.23;;
3843;SDS011;1937;51.444;6.484;2022-11-12T07:16:02;8.67;;;7.47;;
3843;SDS011;1937;51.444;6.484;2022-11-12T07:18:33;9.27;;;6.93;;
3843;SDS011;1937;51.444;6.484;2022-11-12T07:21:02;13.60;;;6.80;;
3843;SDS011;1937;51.444;6.484;2022-11-12T07:23:34;10.87;;;7.73;;
3843;SDS011;1937;51.444;6.484;2022-11-12T07:26:03;11.47;;;7.40;;
3843;SDS011;1937;51.444;6.484;2022-11-12T07:28:33;9.50;;;7.27;;
3843;SDS011;1937;51.444;6.484;2022-11-12T07:31:03;11.10;;;7.20;;
3843;SDS011;1937;51.444;6.484;2022-11-12T07:33:34;10.87;;;7.17;;
3843;SDS011;1937;51.444;6.484;2022-11-12T07:36:03;9.83;;;7.70;;
3843;SDS011;1937;51.444;6.484;2022-11-12T07:38:34;10.70;;;7.27;;
3843;SDS011;1937;51.444;6.484;2022-11-12T07:41:05;10.70;;;7.60;;
3843;SDS011;1937;51.444;6.484;2022-11-12T07:43:35;9.63;;;7.43;;
3843;SDS011;1937;51.444;6.484;2022-11-12T07:46:05;9.20;;;7.47;;
3843;SDS011;1937;51.444;6.484;2022-11-12T07:48:37;9.73;;;7.40;;
3843;SDS011;1937;51.444;6.484;2022-11-12T07:51:08;11.23;;;7.20;;
3843;SDS011;1937;51.444;6.484;2022-11-12T07:53:39;16.43;;;8.90;;
3843;SDS011;1937;51.444;6.484;2022-11-12T07:56:10;10.73;;;8.00;;
3843;SDS011;1937;51.444;6.484;2022-11-12T07:58:41;11.87;;;7.73;;
3843;SDS011;1937;51.444;6.484;2022-11-12T08:01:14;11.80;;;8.27;;
3843;SDS011;1937;51.444;6.484;2022-11-12T08:03:49;8.60;;;6.27;;
3843;SDS011;1937;51.444;6.484;2022-11-12T08:06:18;8.73;;;6.23;;
3843;SDS011;1937;51.444;6.484;2022-11-12T08:08:46;11.00;;;5.73;;
3843;SDS011;1937;51.444;6.484;2022-11-12T08:11:16;6.10;;;5.17;;
3843;SDS011;1937;51.444;6.484;2022-11-12T08:13:45;7.20;;;5.87;;
3843;SDS011;1937;51.444;6.484;2022-11-12T08:16:14;8.03;;;5.20;;
3843;SDS011;1937;51.444;6.484;2022-11-12T08:18:43;8.80;;;5.90;;
3843;SDS011;1937;51.444;6.484;2022-11-12T08:21:14;6.80;;;5.07;;
3843;SDS011;1937;51.444;6.484;2022-11-12T08:23:43;7.03;;;4.83;;
3843;SDS011;1937;51.444;6.484;2022-11-12T08:26:15;8.33;;;5.03;;
3843;SDS011;1937;51.444;6.484;2022-11-12T08:28:44;7.13;;;5.40;;
3843;SDS011;1937;51.444;6.484;2022-11-12T08:31:13;7.30;;;5.13;;
3843;SDS011;1937;51.444;6.484;2022-11-12T08:33:45;7.33;;;5.37;;
3843;SDS011;1937;51.444;6.484;2022-11-12T08:36:16;8.50;;;5.77;;
3843;SDS011;1937;51.444;6.484;2022-11-12T08:38:44;8.80;;;6.17;;
3843;SDS011;1937;51.444;6.484;2022-11-12T08:41:14;6.00;;;5.07;;
3843;SDS011;1937;51.444;6.484;2022-11-12T08:43:43;5.67;;;5.17;;
3843;SDS011;1937;51.444;6.484;2022-11-12T08:46:11;6.20;;;4.93;;
3843;SDS011;1937;51.444;6.484;2022-11-12T08:48:40;7.73;;;4.37;;
3843;SDS011;1937;51.444;6.484;2022-11-12T08:51:09;7.33;;;5.10;;
3843;SDS011;1937;51.444;6.484;2022-11-12T08:53:38;5.80;;;5.20;;
3843;SDS011;1937;51.444;6.484;2022-11-12T08:56:06;7.53;;;5.63;;
3843;SDS011;1937;51.444;6.484;2022-11-12T08:58:37;7.60;;;5.30;;
3843;SDS011;1937;51.444;6.484;2022-11-12T09:01:06;5.47;;;4.63;;
3843;SDS011;1937;51.444;6.484;2022-11-12T09:03:35;6.93;;;5.00;;
3843;SDS011;1937;51.444;6.484;2022-11-12T09:06:03;8.73;;;5.10;;
3843;SDS011;1937;51.444;6.484;2022-11-12T09:08:34;5.93;;;5.20;;
3843;SDS011;1937;51.444;6.484;2022-11-12T09:11:05;8.57;;;5.00;;
3843;SDS011;1937;51.444;6.484;2022-11-12T09:13:36;8.10;;;5.70;;
3843;SDS011;1937;51.444;6.484;2022-11-12T09:16:05;8.53;;;6.20;;
3843;SDS011;1937;51.444;6.484;2022-11-12T09:18:36;8.83;;;5.27;;
3843;SDS011;1937;51.444;6.484;2022-11-12T09:21:05;8.80;;;5.87;;
3843;SDS011;1937;51.444;6.484;2022-11-12T09:23:36;9.13;;;5.00;;
3843;SDS011;1937;51.444;6.484;2022-11-12T09:26:06;9.87;;;5.03;;
3843;SDS011;1937;51.444;6.484;2022-11-12T09:28:34;8.33;;;5.10;;
3843;SDS011;1937;51.444;6.484;2022-11-12T09:31:05;7.70;;;5.10;;
3843;SDS011;1937;51.444;6.484;2022-11-12T09:33:36;5.47;;;4.50;;
3843;SDS011;1937;51.444;6.484;2022-11-12T09:36:04;7.47;;;4.70;;
3843;SDS011;1937;51.444;6.484;2022-11-12T09:38:33;5.53;;;4.57;;
3843;SDS011;1937;51.444;6.484;2022-11-12T09:41:11;7.87;;;4.67;;
3843;SDS011;1937;51.444;6.484;2022-11-12T09:43:44;6.20;;;4.50;;
3843;SDS011;1937;51.444;6.484;2022-11-12T09:46:17;9.83;;;4.70;;
3843;SDS011;1937;51.444;6.484;2022-11-12T09:48:51;8.17;;;4.70;;
3843;SDS011;1937;51.444;6.484;2022-11-12T09:51:24;8.53;;;4.20;;
3843;SDS011;1937;51.444;6.484;2022-11-12T09:53:55;8.83;;;4.83;;
3843;SDS011;1937;51.444;6.484;2022-11-12T09:56:28;5.80;;;4.40;;
3843;SDS011;1937;51.444;6.484;2022-11-12T09:58:57;5.70;;;5.10;;
3843;SDS011;1937;51.444;6.484;2022-11-12T10:01:31;5.37;;;4.87;;
3843;SDS011;1937;51.444;6.484;2022-11-12T10:04:34;4.63;;;4.23;;
3843;SDS011;1937;51.444;6.484;2022-11-12T10:07:11;6.30;;;4.53;;
3843;SDS011;1937;51.444;6.484;2022-11-12T10:09:50;6.90;;;4.20;;
3843;SDS011;1937;51.444;6.484;2022-11-12T10:12:29;4.83;;;4.33;;
3843;SDS011;1937;51.444;6.484;2022-11-12T10:18:22;7.13;;;4.10;;
3843;SDS011;1937;51.444;6.484;2022-11-12T10:21:07;6.60;;;4.87;;
3843;SDS011;1937;51.444;6.484;2022-11-12T10:23:43;9.73;;;5.97;;
3843;SDS011;1937;51.444;6.484;2022-11-12T10:26:16;7.20;;;5.13;;
3843;SDS011;1937;51.444;6.484;2022-11-12T10:28:49;5.70;;;4.70;;
3843;SDS011;1937;51.444;6.484;2022-11-12T10:31:24;5.20;;;4.40;;
3843;SDS011;1937;51.444;6.484;2022-11-12T10:33:53;5.40;;;4.77;;
3843;SDS011;1937;51.444;6.484;2022-11-12T10:36:34;9.20;;;4.93;;
3843;SDS011;1937;51.444;6.484;2022-11-12T10:39:03;5.13;;;3.97;;
3843;SDS011;1937;51.444;6.484;2022-11-12T10:41:32;5.33;;;4.23;;
3843;SDS011;1937;51.444;6.484;2022-11-12T10:44:03;5.70;;;4.40;;
3843;SDS011;1937;51.444;6.484;2022-11-12T10:46:38;6.47;;;4.40;;
3843;SDS011;1937;51.444;6.484;2022-11-12T10:49:21;6.30;;;4.60;;
3843;SDS011;1937;51.444;6.484;2022-11-12T10:51:53;4.77;;;3.57;;
3843;SDS011;1937;51.444;6.484;2022-11-12T10:54:27;5.43;;;3.83;;
3843;SDS011;1937;51.444;6.484;2022-11-12T10:57:08;5.13;;;3.77;;
3843;SDS011;1937;51.444;6.484;2022-11-12T10:59:48;8.50;;;4.30;;
3843;SDS011;1937;51.444;6.484;2022-11-12T11:02:33;5.90;;;4.43;;
3843;SDS011;1937;51.444;6.484;2022-11-12T11:07:57;6.13;;;4.33;;
3843;SDS011;1937;51.444;6.484;2022-11-12T11:10:27;4.73;;;3.70;;
3843;SDS011;1937;51.444;6.484;2022-11-12T11:13:19;7.37;;;4.50;;
3843;SDS011;1937;51.444;6.484;2022-11-12T11:16:00;4.77;;;3.80;;
3843;SDS011;1937;51.444;6.484;2022-11-12T11:18:31;5.27;;;4.63;;
3843;SDS011;1937;51.444;6.484;2022-11-12T11:21:05;7.10;;;4.33;;
3843;SDS011;1937;51.444;6.484;2022-11-12T11:23:45;6.57;;;4.00;;
3843;SDS011;1937;51.444;6.484;2022-11-12T11:26:23;6.43;;;4.00;;
3843;SDS011;1937;51.444;6.484;2022-11-12T11:28:59;5.47;;;4.00;;
3843;SDS011;1937;51.444;6.484;2022-11-12T11:31:43;8.27;;;5.27;;
3843;SDS011;1937;51.444;6.484;2022-11-12T11:34:23;6.73;;;4.73;;
3843;SDS011;1937;51.444;6.484;2022-11-12T11:36:59;7.50;;;3.80;;
3843;SDS011;1937;51.444;6.484;2022-11-12T11:39:44;7.57;;;4.07;;
3843;SDS011;1937;51.444;6.484;2022-11-12T11:42:29;7.10;;;3.83;;
3843;SDS011;1937;51.444;6.484;2022-11-12T11:45:14;6.57;;;4.93;;
3843;SDS011;1937;51.444;6.484;2022-11-12T11:47:51;5.63;;;4.10;;
3843;SDS011;1937;51.444;6.484;2022-11-12T11:50:26;4.90;;;3.90;;
3843;SDS011;1937;51.444;6.484;2022-11-12T11:53:00;5.43;;;4.50;;
3843;SDS011;1937;51.444;6.484;2022-11-12T11:55:42;4.87;;;3.67;;
3843;SDS011;1937;51.444;6.484;2022-11-12T12:01:17;5.50;;;4.17;;
3843;SDS011;1937;51.444;6.484;2022-11-12T12:04:01;7.97;;;4.53;;
3843;SDS011;1937;51.444;6.484;2022-11-12T12:06:40;7.50;;;4.47;;
3843;SDS011;1937;51.444;6.484;2022-11-12T12:09:22;6.60;;;4.63;;
3843;SDS011;1937;51.444;6.484;2022-11-12T12:12:03;5.60;;;4.10;;
3843;SDS011;1937;51.444;6.484;2022-11-12T12:14:44;7.80;;;4.40;;
3843;SDS011;1937;51.444;6.484;2022-11-12T12:17:24;4.53;;;4.13;;
3843;SDS011;1937;51.444;6.484;2022-11-12T12:20:07;12.50;;;4.60;;
3843;SDS011;1937;51.444;6.484;2022-11-12T12:22:44;5.33;;;4.43;;
3843;SDS011;1937;51.444;6.484;2022-11-12T12:25:16;6.73;;;4.30;;
3843;SDS011;1937;51.444;6.484;2022-11-12T12:27:55;7.27;;;4.93;;
3843;SDS011;1937;51.444;6.484;2022-11-12T12:30:33;6.03;;;4.97;;
3843;SDS011;1937;51.444;6.484;2022-11-12T12:33:08;8.60;;;5.17;;
3843;SDS011;1937;51.444;6.484;2022-11-12T12:35:49;6.13;;;5.03;;
3843;SDS011;1937;51.444;6.484;2022-11-12T12:38:23;7.37;;;5.47;;
3843;SDS011;1937;51.444;6.484;2022-11-12T12:40:58;6.97;;;4.07;;
3843;SDS011;1937;51.444;6.484;2022-11-12T12:43:36;5.70;;;4.40;;
3843;SDS011;1937;51.444;6.484;2022-11-12T12:46:08;8.60;;;5.60;;
3843;SDS011;1937;51.444;6.484;2022-11-12T12:48:40;9.73;;;6.13;;
3843;SDS011;1937;51.444;6.484;2022-11-12T12:51:13;8.97;;;6.30;;
3843;SDS011;1937;51.444;6.484;2022-11-12T12:53:41;9.53;;;6.80;;
3843;SDS011;1937;51.444;6.484;2022-11-12T12:59:21;11.17;;;6.80;;
3843;SDS011;1937;51.444;6.484;2022-11-12T13:01:53;9.63;;;6.30;;
3843;SDS011;1937;51.444;6.484;2022-11-12T13:07:18;11.67;;;6.60;;
3843;SDS011;1937;51.444;6.484;2022-11-12T13:09:48;9.97;;;6.77;;
3843;SDS011;1937;51.444;6.484;2022-11-12T13:12:17;11.00;;;5.97;;
3843;SDS011;1937;51.444;6.484;2022-11-12T13:17:40;8.57;;;6.30;;
3843;SDS011;1937;51.444;6.484;2022-11-12T13:20:16;9.97;;;5.97;;
3843;SDS011;1937;51.444;6.484;2022-11-12T13:23:00;10.70;;;6.00;;
3843;SDS011;1937;51.444;6.484;2022-11-12T13:25:29;11.00;;;6.73;;
3843;SDS011;1937;51.444;6.484;2022-11-12T13:28:11;8.43;;;5.70;;
3843;SDS011;1937;51.444;6.484;2022-11-12T13:30:58;11.00;;;6.00;;
3843;SDS011;1937;51.444;6.484;2022-11-12T13:33:30;8.63;;;7.50;;
3843;SDS011;1937;51.444;6.484;2022-11-12T13:38:52;19.53;;;6.77;;
3843;SDS011;1937;51.444;6.484;2022-11-12T13:41:24;9.33;;;6.13;;
3843;SDS011;1937;51.444;6.484;2022-11-12T13:44:12;8.00;;;4.53;;
3843;SDS011;1937;51.444;6.484;2022-11-12T13:46:42;9.17;;;4.83;;
3843;SDS011;1937;51.444;6.484;2022-11-12T13:49:14;9.67;;;5.17;;
3843;SDS011;1937;51.444;6.484;2022-11-12T13:51:44;7.50;;;4.57;;
3843;SDS011;1937;51.444;6.484;2022-11-12T13:57:13;11.13;;;4.40;;
3843;SDS011;1937;51.444;6.484;2022-11-12T14:00:06;9.90;;;4.83;;
3843;SDS011;1937;51.444;6.484;2022-11-12T14:02:49;7.00;;;4.30;;
3843;SDS011;1937;51.444;6.484;2022-11-12T14:05:21;5.43;;;3.97;;
3843;SDS011;1937;51.444;6.484;2022-11-12T14:08:10;9.70;;;5.00;;
3843;SDS011;1937;51.444;6.484;2022-11-12T14:10:46;9.87;;;3.93;;
3843;SDS011;1937;51.444;6.484;2022-11-12T14:13:29;8.23;;;4.43;;
3843;SDS011;1937;51.444;6.484;2022-11-12T14:16:18;6.70;;;3.87;;
3843;SDS011;1937;51.444;6.484;2022-11-12T14:21:58;8.50;;;5.40;;
3843;SDS011;1937;51.444;6.484;2022-11-12T14:24:37;9.90;;;6.20;;
3843;SDS011;1937;51.444;6.484;2022-11-12T14:27:20;6.50;;;4.00;;
3843;SDS011;1937;51.444;6.484;2022-11-12T14:30:06;4.37;;;3.33;;
3843;SDS011;1937;51.444;6.484;2022-11-12T14:32:40;7.90;;;4.90;;
3843;SDS011;1937;51.444;6.484;2022-11-12T14:35:19;7.50;;;3.27;;
3843;SDS011;1937;51.444;6.484;2022-11-12T14:37:51;3.97;;;3.53;;
3843;SDS011;1937;51.444;6.484;2022-11-12T14:40:23;4.87;;;3.43;;
3843;SDS011;1937;51.444;6.484;2022-11-12T14:42:55;12.30;;;5.27;;
3843;SDS011;1937;51.444;6.484;2022-11-12T14:45:23;7.20;;;4.13;;
3843;SDS011;1937;51.444;6.484;2022-11-12T14:47:52;10.00;;;5.00;;
3843;SDS011;1937;51.444;6.484;2022-11-12T14:50:23;4.97;;;4.07;;
3843;SDS011;1937;51.444;6.484;2022-11-12T14:52:54;5.23;;;4.73;;
3843;SDS011;1937;51.444;6.484;2022-11-12T14:55:27;5.23;;;3.63;;
3843;SDS011;1937;51.444;6.484;2022-11-12T14:57:58;6.97;;;3.50;;
3843;SDS011;1937;51.444;6.484;2022-11-12T15:00:39;4.87;;;3.50;;
3843;SDS011;1937;51.444;6.484;2022-11-12T15:03:09;5.50;;;4.20;;
3843;SDS011;1937;51.444;6.484;2022-11-12T15:05:52;4.40;;;3.87;;
3843;SDS011;1937;51.444;6.484;2022-11-12T15:08:34;5.93;;;4.30;;
3843;SDS011;1937;51.444;6.484;2022-11-12T15:11:18;7.50;;;4.10;;
3843;SDS011;1937;51.444;6.484;2022-11-12T15:13:50;9.47;;;4.40;;
3843;SDS011;1937;51.444;6.484;2022-11-12T15:16:22;5.40;;;4.63;;
3843;SDS011;1937;51.444;6.484;2022-11-12T15:19:04;6.50;;;3.70;;
3843;SDS011;1937;51.444;6.484;2022-11-12T15:21:42;8.43;;;4.23;;
3843;SDS011;1937;51.444;6.484;2022-11-12T15:24:17;6.30;;;4.00;;
3843;SDS011;1937;51.444;6.484;2022-11-12T15:26:47;6.03;;;4.00;;
3843;SDS011;1937;51.444;6.484;2022-11-12T15:29:23;8.07;;;4.27;;
3843;SDS011;1937;51.444;6.484;2022-11-12T15:31:57;6.23;;;4.20;;
3843;SDS011;1937;51.444;6.484;2022-11-12T15:34:29;9.30;;;5.13;;
3843;SDS011;1937;51.444;6.484;2022-11-12T15:37:11;4.93;;;4.07;;
3843;SDS011;1937;51.444;6.484;2022-11-12T15:39:46;8.03;;;5.17;;
3843;SDS011;1937;51.444;6.484;2022-11-12T15:42:20;9.47;;;5.60;;
3843;SDS011;1937;51.444;6.484;2022-11-12T15:44:55;9.90;;;6.27;;
3843;SDS011;1937;51.444;6.484;2022-11-12T15:47:25;8.47;;;6.30;;
3843;SDS011;1937;51.444;6.484;2022-11-12T15:49:54;10.23;;;7.00;;
3843;SDS011;1937;51.444;6.484;2022-11-12T15:52:23;15.60;;;8.60;;
3843;SDS011;1937;51.444;6.484;2022-11-12T15:54:52;17.33;;;7.57;;
3843;SDS011;1937;51.444;6.484;2022-11-12T15:57:22;15.53;;;6.93;;
3843;SDS011;1937;51.444;6.484;2022-11-12T15:59:56;12.37;;;6.97;;
3843;SDS011;1937;51.444;6.484;2022-11-12T16:02:27;17.70;;;8.17;;
3843;SDS011;1937;51.444;6.484;2022-11-12T16:04:56;11.93;;;7.10;;
3843;SDS011;1937;51.444;6.484;2022-11-12T16:07:25;12.10;;;6.90;;
3843;SDS011;1937;51.444;6.484;2022-11-12T16:09:53;13.30;;;8.10;;
3843;SDS011;1937;51.444;6.484;2022-11-12T16:12:21;15.93;;;7.90;;